Terminal Aerodrome Forecast
Issued by NWS

Home | Current Version | Previous Version | Text Only | Print | Product List | Glossary On
Versions: 1 2 3 4 5 6 7 8 9 10 11 12
000
FTUS43 KABR 221100
TAFATY
TAF
KATY 221121Z 2212/2312 16018G25KT P6SM SCT200
     FM221900 18015KT P6SM VCSH BKN050 OVC200
      TEMPO 2222/2301 4SM -RA OVC020
     FM230400 VRB05KT P6SM SKC=

USA.gov is the U.S. government's official web portal to all federal, state and local government web resources and services.